sensor_id;sensor_type;location;lat;lon;timestamp;P1;durP1;ratioP1;P2;durP2;ratioP2
66402;SDS011;53212;52.112;5.144;2022-10-31T00:01:20;11.50;;;3.90;;
66402;SDS011;53212;52.112;5.144;2022-10-31T00:06:12;7.60;;;4.00;;
66402;SDS011;53212;52.112;5.144;2022-10-31T00:08:38;5.70;;;3.70;;
66402;SDS011;53212;52.112;5.144;2022-10-31T00:11:07;6.70;;;4.00;;
66402;SDS011;53212;52.112;5.144;2022-10-31T00:13:33;10.20;;;4.20;;
66402;SDS011;53212;52.112;5.144;2022-10-31T00:15:59;9.90;;;4.40;;
66402;SDS011;53212;52.112;5.144;2022-10-31T00:18:24;7.10;;;4.00;;
66402;SDS011;53212;52.112;5.144;2022-10-31T00:20:58;10.00;;;4.30;;
66402;SDS011;53212;52.112;5.144;2022-10-31T00:23:27;10.40;;;4.30;;
66402;SDS011;53212;52.112;5.144;2022-10-31T00:25:53;6.10;;;3.50;;
66402;SDS011;53212;52.112;5.144;2022-10-31T00:28:18;5.30;;;4.30;;
66402;SDS011;53212;52.112;5.144;2022-10-31T00:30:46;8.10;;;4.20;;
66402;SDS011;53212;52.112;5.144;2022-10-31T00:33:27;6.70;;;4.40;;
66402;SDS011;53212;52.112;5.144;2022-10-31T00:35:53;6.10;;;4.20;;
66402;SDS011;53212;52.112;5.144;2022-10-31T00:38:19;6.60;;;4.10;;
66402;SDS011;53212;52.112;5.144;2022-10-31T00:40:45;8.90;;;4.40;;
66402;SDS011;53212;52.112;5.144;2022-10-31T00:43:11;6.60;;;4.40;;
66402;SDS011;53212;52.112;5.144;2022-10-31T00:45:36;6.50;;;4.30;;
66402;SDS011;53212;52.112;5.144;2022-10-31T00:48:02;7.70;;;4.30;;
66402;SDS011;53212;52.112;5.144;2022-10-31T00:50:27;6.90;;;4.40;;
66402;SDS011;53212;52.112;5.144;2022-10-31T00:52:53;8.70;;;4.50;;
66402;SDS011;53212;52.112;5.144;2022-10-31T00:55:18;12.80;;;5.00;;
66402;SDS011;53212;52.112;5.144;2022-10-31T00:57:47;7.00;;;4.10;;
66402;SDS011;53212;52.112;5.144;2022-10-31T01:00:13;8.10;;;4.30;;
66402;SDS011;53212;52.112;5.144;2022-10-31T01:02:39;6.60;;;4.60;;
66402;SDS011;53212;52.112;5.144;2022-10-31T01:05:04;7.60;;;4.30;;
66402;SDS011;53212;52.112;5.144;2022-10-31T01:07:30;5.60;;;4.20;;
66402;SDS011;53212;52.112;5.144;2022-10-31T01:09:56;6.20;;;4.50;;
66402;SDS011;53212;52.112;5.144;2022-10-31T01:12:21;5.30;;;3.50;;
66402;SDS011;53212;52.112;5.144;2022-10-31T01:14:46;9.80;;;3.80;;
66402;SDS011;53212;52.112;5.144;2022-10-31T01:17:13;8.30;;;4.10;;
66402;SDS011;53212;52.112;5.144;2022-10-31T01:19:39;7.90;;;4.70;;
66402;SDS011;53212;52.112;5.144;2022-10-31T01:22:05;11.40;;;4.60;;
66402;SDS011;53212;52.112;5.144;2022-10-31T01:24:31;5.20;;;3.90;;
66402;SDS011;53212;52.112;5.144;2022-10-31T01:26:57;7.90;;;4.30;;
66402;SDS011;53212;52.112;5.144;2022-10-31T01:29:22;6.50;;;4.40;;
66402;SDS011;53212;52.112;5.144;2022-10-31T01:31:48;8.80;;;4.30;;
66402;SDS011;53212;52.112;5.144;2022-10-31T01:34:16;7.20;;;3.90;;
66402;SDS011;53212;52.112;5.144;2022-10-31T01:36:43;8.70;;;4.40;;
66402;SDS011;53212;52.112;5.144;2022-10-31T01:39:12;6.10;;;3.90;;
66402;SDS011;53212;52.112;5.144;2022-10-31T01:41:42;10.40;;;4.40;;
66402;SDS011;53212;52.112;5.144;2022-10-31T01:46:40;7.10;;;4.70;;
66402;SDS011;53212;52.112;5.144;2022-10-31T01:49:34;6.00;;;3.80;;
66402;SDS011;53212;52.112;5.144;2022-10-31T01:52:32;8.80;;;4.40;;
66402;SDS011;53212;52.112;5.144;2022-10-31T01:55:18;7.20;;;4.30;;
66402;SDS011;53212;52.112;5.144;2022-10-31T01:57:51;9.50;;;4.80;;
66402;SDS011;53212;52.112;5.144;2022-10-31T02:00:19;5.50;;;4.20;;
66402;SDS011;53212;52.112;5.144;2022-10-31T02:02:46;11.30;;;5.10;;
66402;SDS011;53212;52.112;5.144;2022-10-31T02:05:22;8.90;;;5.00;;
66402;SDS011;53212;52.112;5.144;2022-10-31T02:08:15;8.30;;;4.90;;
66402;SDS011;53212;52.112;5.144;2022-10-31T02:10:46;6.90;;;5.00;;
66402;SDS011;53212;52.112;5.144;2022-10-31T02:13:11;10.20;;;4.70;;
66402;SDS011;53212;52.112;5.144;2022-10-31T02:15:39;7.00;;;4.90;;
66402;SDS011;53212;52.112;5.144;2022-10-31T02:18:06;8.20;;;4.90;;
66402;SDS011;53212;52.112;5.144;2022-10-31T02:21:23;7.90;;;4.30;;
66402;SDS011;53212;52.112;5.144;2022-10-31T02:29:50;9.80;;;5.20;;
66402;SDS011;53212;52.112;5.144;2022-10-31T02:32:33;6.90;;;4.80;;
66402;SDS011;53212;52.112;5.144;2022-10-31T02:38:38;9.10;;;5.70;;
66402;SDS011;53212;52.112;5.144;2022-10-31T02:44:10;8.20;;;4.90;;
66402;SDS011;53212;52.112;5.144;2022-10-31T02:47:18;6.90;;;4.40;;
66402;SDS011;53212;52.112;5.144;2022-10-31T02:50:04;6.10;;;4.50;;
66402;SDS011;53212;52.112;5.144;2022-10-31T02:58:13;7.10;;;4.80;;
66402;SDS011;53212;52.112;5.144;2022-10-31T03:00:57;7.30;;;4.30;;
66402;SDS011;53212;52.112;5.144;2022-10-31T03:07:30;5.90;;;4.80;;
66402;SDS011;53212;52.112;5.144;2022-10-31T03:15:53;6.70;;;4.50;;
66402;SDS011;53212;52.112;5.144;2022-10-31T03:18:47;7.60;;;5.30;;
66402;SDS011;53212;52.112;5.144;2022-10-31T03:21:43;9.30;;;5.30;;
66402;SDS011;53212;52.112;5.144;2022-10-31T03:24:12;9.70;;;6.20;;
66402;SDS011;53212;52.112;5.144;2022-10-31T03:26:47;11.70;;;6.60;;
66402;SDS011;53212;52.112;5.144;2022-10-31T03:29:19;8.70;;;6.90;;
66402;SDS011;53212;52.112;5.144;2022-10-31T03:34:30;12.90;;;7.90;;
66402;SDS011;53212;52.112;5.144;2022-10-31T03:36:59;11.40;;;7.50;;
66402;SDS011;53212;52.112;5.144;2022-10-31T03:39:27;11.50;;;6.80;;
66402;SDS011;53212;52.112;5.144;2022-10-31T03:41:56;10.60;;;7.80;;
66402;SDS011;53212;52.112;5.144;2022-10-31T03:44:27;8.60;;;6.90;;
66402;SDS011;53212;52.112;5.144;2022-10-31T03:46:55;9.70;;;6.50;;
66402;SDS011;53212;52.112;5.144;2022-10-31T03:49:21;11.40;;;6.90;;
66402;SDS011;53212;52.112;5.144;2022-10-31T03:55:05;14.60;;;9.10;;
66402;SDS011;53212;52.112;5.144;2022-10-31T03:58:20;14.10;;;9.60;;
66402;SDS011;53212;52.112;5.144;2022-10-31T04:00:48;12.00;;;9.00;;
66402;SDS011;53212;52.112;5.144;2022-10-31T04:03:20;13.10;;;8.80;;
66402;SDS011;53212;52.112;5.144;2022-10-31T04:05:49;15.50;;;8.90;;
66402;SDS011;53212;52.112;5.144;2022-10-31T04:08:20;12.50;;;8.50;;
66402;SDS011;53212;52.112;5.144;2022-10-31T04:10:49;12.80;;;8.20;;
66402;SDS011;53212;52.112;5.144;2022-10-31T04:13:20;9.90;;;7.50;;
66402;SDS011;53212;52.112;5.144;2022-10-31T04:15:50;10.20;;;7.20;;
66402;SDS011;53212;52.112;5.144;2022-10-31T04:18:18;9.00;;;7.10;;
66402;SDS011;53212;52.112;5.144;2022-10-31T04:20:44;10.20;;;7.40;;
66402;SDS011;53212;52.112;5.144;2022-10-31T04:23:24;12.20;;;7.50;;
66402;SDS011;53212;52.112;5.144;2022-10-31T04:25:50;11.20;;;7.60;;
66402;SDS011;53212;52.112;5.144;2022-10-31T04:28:16;15.70;;;8.10;;
66402;SDS011;53212;52.112;5.144;2022-10-31T04:30:41;10.30;;;7.80;;
66402;SDS011;53212;52.112;5.144;2022-10-31T04:33:07;11.60;;;8.10;;
66402;SDS011;53212;52.112;5.144;2022-10-31T04:35:35;11.20;;;7.70;;
66402;SDS011;53212;52.112;5.144;2022-10-31T04:38:01;11.60;;;8.20;;
66402;SDS011;53212;52.112;5.144;2022-10-31T04:40:26;9.10;;;6.50;;
66402;SDS011;53212;52.112;5.144;2022-10-31T04:42:55;13.60;;;7.80;;
66402;SDS011;53212;52.112;5.144;2022-10-31T04:45:20;14.20;;;8.90;;
66402;SDS011;53212;52.112;5.144;2022-10-31T04:47:47;15.70;;;9.10;;
66402;SDS011;53212;52.112;5.144;2022-10-31T04:50:15;12.80;;;8.00;;
66402;SDS011;53212;52.112;5.144;2022-10-31T04:52:44;12.40;;;8.40;;
66402;SDS011;53212;52.112;5.144;2022-10-31T04:55:11;12.70;;;8.50;;
66402;SDS011;53212;52.112;5.144;2022-10-31T04:57:48;11.90;;;7.80;;
66402;SDS011;53212;52.112;5.144;2022-10-31T05:00:19;11.10;;;7.30;;
66402;SDS011;53212;52.112;5.144;2022-10-31T05:02:51;10.20;;;8.10;;
66402;SDS011;53212;52.112;5.144;2022-10-31T05:05:20;9.80;;;7.50;;
66402;SDS011;53212;52.112;5.144;2022-10-31T05:07:48;10.60;;;7.40;;
66402;SDS011;53212;52.112;5.144;2022-10-31T05:10:17;12.30;;;8.60;;
66402;SDS011;53212;52.112;5.144;2022-10-31T05:12:47;10.80;;;7.70;;
66402;SDS011;53212;52.112;5.144;2022-10-31T05:15:25;10.70;;;8.10;;
66402;SDS011;53212;52.112;5.144;2022-10-31T05:17:52;15.80;;;9.30;;
66402;SDS011;53212;52.112;5.144;2022-10-31T05:20:23;10.90;;;8.40;;
66402;SDS011;53212;52.112;5.144;2022-10-31T05:22:51;9.80;;;8.50;;
66402;SDS011;53212;52.112;5.144;2022-10-31T05:25:19;11.30;;;8.50;;
66402;SDS011;53212;52.112;5.144;2022-10-31T05:27:50;13.70;;;9.00;;
66402;SDS011;53212;52.112;5.144;2022-10-31T05:30:21;9.00;;;7.70;;
66402;SDS011;53212;52.112;5.144;2022-10-31T05:32:55;11.80;;;8.10;;
66402;SDS011;53212;52.112;5.144;2022-10-31T05:35:27;13.10;;;8.80;;
66402;SDS011;53212;52.112;5.144;2022-10-31T05:37:54;13.40;;;8.50;;
66402;SDS011;53212;52.112;5.144;2022-10-31T05:40:20;9.60;;;7.30;;
66402;SDS011;53212;52.112;5.144;2022-10-31T05:42:47;8.70;;;6.70;;
66402;SDS011;53212;52.112;5.144;2022-10-31T05:45:17;10.10;;;8.20;;
66402;SDS011;53212;52.112;5.144;2022-10-31T05:47:59;13.00;;;8.80;;
66402;SDS011;53212;52.112;5.144;2022-10-31T05:50:27;12.80;;;9.00;;
66402;SDS011;53212;52.112;5.144;2022-10-31T05:53:03;12.90;;;9.00;;
66402;SDS011;53212;52.112;5.144;2022-10-31T05:55:30;14.60;;;9.40;;
66402;SDS011;53212;52.112;5.144;2022-10-31T05:57:57;12.20;;;9.10;;
66402;SDS011;53212;52.112;5.144;2022-10-31T06:00:24;14.40;;;9.90;;
66402;SDS011;53212;52.112;5.144;2022-10-31T06:03:03;11.00;;;9.40;;
66402;SDS011;53212;52.112;5.144;2022-10-31T06:05:30;13.40;;;9.30;;
66402;SDS011;53212;52.112;5.144;2022-10-31T06:07:56;14.20;;;8.90;;
66402;SDS011;53212;52.112;5.144;2022-10-31T06:10:23;13.30;;;9.40;;
66402;SDS011;53212;52.112;5.144;2022-10-31T06:12:49;12.00;;;9.10;;
66402;SDS011;53212;52.112;5.144;2022-10-31T06:15:15;15.30;;;10.40;;
66402;SDS011;53212;52.112;5.144;2022-10-31T06:17:41;14.10;;;10.00;;
66402;SDS011;53212;52.112;5.144;2022-10-31T06:20:07;12.10;;;9.60;;
66402;SDS011;53212;52.112;5.144;2022-10-31T06:22:33;11.30;;;8.80;;
66402;SDS011;53212;52.112;5.144;2022-10-31T06:24:59;18.50;;;11.70;;
66402;SDS011;53212;52.112;5.144;2022-10-31T06:27:25;16.70;;;11.40;;
66402;SDS011;53212;52.112;5.144;2022-10-31T06:29:50;19.20;;;12.70;;
66402;SDS011;53212;52.112;5.144;2022-10-31T06:32:16;20.50;;;12.50;;
66402;SDS011;53212;52.112;5.144;2022-10-31T06:34:43;20.00;;;12.20;;
66402;SDS011;53212;52.112;5.144;2022-10-31T06:37:11;22.80;;;13.00;;
66402;SDS011;53212;52.112;5.144;2022-10-31T06:39:37;20.50;;;11.10;;
66402;SDS011;53212;52.112;5.144;2022-10-31T06:42:05;26.30;;;14.50;;
66402;SDS011;53212;52.112;5.144;2022-10-31T06:44:31;17.30;;;10.50;;
66402;SDS011;53212;52.112;5.144;2022-10-31T06:46:59;26.80;;;15.10;;
66402;SDS011;53212;52.112;5.144;2022-10-31T06:49:25;22.50;;;12.20;;
66402;SDS011;53212;52.112;5.144;2022-10-31T06:51:50;17.00;;;10.50;;
66402;SDS011;53212;52.112;5.144;2022-10-31T06:54:16;17.10;;;10.80;;
66402;SDS011;53212;52.112;5.144;2022-10-31T06:56:42;20.10;;;13.30;;
66402;SDS011;53212;52.112;5.144;2022-10-31T06:59:07;19.30;;;13.70;;
66402;SDS011;53212;52.112;5.144;2022-10-31T07:01:33;20.00;;;13.20;;
66402;SDS011;53212;52.112;5.144;2022-10-31T07:03:59;20.60;;;13.00;;
66402;SDS011;53212;52.112;5.144;2022-10-31T07:06:24;9.20;;;7.00;;
66402;SDS011;53212;52.112;5.144;2022-10-31T07:08:50;11.70;;;9.30;;
66402;SDS011;53212;52.112;5.144;2022-10-31T07:11:15;22.70;;;13.00;;
66402;SDS011;53212;52.112;5.144;2022-10-31T07:13:41;15.40;;;11.00;;
66402;SDS011;53212;52.112;5.144;2022-10-31T07:16:06;15.10;;;10.40;;
66402;SDS011;53212;52.112;5.144;2022-10-31T07:18:33;13.60;;;9.20;;
66402;SDS011;53212;52.112;5.144;2022-10-31T07:21:02;17.30;;;11.70;;
66402;SDS011;53212;52.112;5.144;2022-10-31T07:23:27;17.20;;;11.40;;
66402;SDS011;53212;52.112;5.144;2022-10-31T07:25:57;19.30;;;11.90;;
66402;SDS011;53212;52.112;5.144;2022-10-31T07:28:24;17.40;;;11.70;;
66402;SDS011;53212;52.112;5.144;2022-10-31T07:30:51;14.80;;;10.80;;
66402;SDS011;53212;52.112;5.144;2022-10-31T07:33:18;16.90;;;10.90;;
66402;SDS011;53212;52.112;5.144;2022-10-31T07:35:44;20.40;;;11.40;;
66402;SDS011;53212;52.112;5.144;2022-10-31T07:38:14;17.20;;;11.00;;
66402;SDS011;53212;52.112;5.144;2022-10-31T07:40:41;16.80;;;11.10;;
66402;SDS011;53212;52.112;5.144;2022-10-31T07:43:09;18.40;;;12.20;;
66402;SDS011;53212;52.112;5.144;2022-10-31T07:45:46;18.20;;;10.60;;
66402;SDS011;53212;52.112;5.144;2022-10-31T07:48:16;15.90;;;10.70;;
66402;SDS011;53212;52.112;5.144;2022-10-31T07:50:42;21.50;;;12.00;;
66402;SDS011;53212;52.112;5.144;2022-10-31T07:53:11;14.90;;;11.10;;
66402;SDS011;53212;52.112;5.144;2022-10-31T07:55:38;18.10;;;12.00;;
66402;SDS011;53212;52.112;5.144;2022-10-31T08:00:34;18.00;;;11.90;;
66402;SDS011;53212;52.112;5.144;2022-10-31T08:03:06;16.60;;;12.00;;
66402;SDS011;53212;52.112;5.144;2022-10-31T08:05:34;17.10;;;10.30;;
66402;SDS011;53212;52.112;5.144;2022-10-31T08:08:01;16.10;;;10.40;;
66402;SDS011;53212;52.112;5.144;2022-10-31T08:10:27;15.30;;;10.50;;
66402;SDS011;53212;52.112;5.144;2022-10-31T08:12:57;18.50;;;11.30;;
66402;SDS011;53212;52.112;5.144;2022-10-31T08:15:30;19.40;;;10.90;;
66402;SDS011;53212;52.112;5.144;2022-10-31T08:17:57;15.50;;;10.00;;
66402;SDS011;53212;52.112;5.144;2022-10-31T08:20:23;18.70;;;11.10;;
66402;SDS011;53212;52.112;5.144;2022-10-31T08:23:06;16.70;;;11.20;;
66402;SDS011;53212;52.112;5.144;2022-10-31T08:29:19;18.00;;;12.00;;
66402;SDS011;53212;52.112;5.144;2022-10-31T08:31:45;16.30;;;11.90;;
66402;SDS011;53212;52.112;5.144;2022-10-31T08:34:10;14.80;;;10.70;;
66402;SDS011;53212;52.112;5.144;2022-10-31T08:36:36;14.70;;;10.90;;
66402;SDS011;53212;52.112;5.144;2022-10-31T08:39:01;17.00;;;11.90;;
66402;SDS011;53212;52.112;5.144;2022-10-31T08:41:27;16.80;;;11.70;;
66402;SDS011;53212;52.112;5.144;2022-10-31T08:43:53;15.20;;;10.10;;
66402;SDS011;53212;52.112;5.144;2022-10-31T08:46:18;12.50;;;8.80;;
66402;SDS011;53212;52.112;5.144;2022-10-31T08:48:44;17.40;;;11.10;;
66402;SDS011;53212;52.112;5.144;2022-10-31T08:51:10;15.80;;;10.80;;
66402;SDS011;53212;52.112;5.144;2022-10-31T08:53:36;13.50;;;11.00;;
66402;SDS011;53212;52.112;5.144;2022-10-31T08:56:01;19.90;;;12.30;;
66402;SDS011;53212;52.112;5.144;2022-10-31T08:58:27;21.10;;;12.90;;
66402;SDS011;53212;52.112;5.144;2022-10-31T09:00:53;19.70;;;13.00;;
66402;SDS011;53212;52.112;5.144;2022-10-31T09:03:24;19.60;;;12.50;;
66402;SDS011;53212;52.112;5.144;2022-10-31T09:05:56;21.30;;;13.30;;
66402;SDS011;53212;52.112;5.144;2022-10-31T09:08:23;21.20;;;13.20;;
66402;SDS011;53212;52.112;5.144;2022-10-31T09:10:48;19.30;;;12.80;;
66402;SDS011;53212;52.112;5.144;2022-10-31T09:13:16;20.40;;;13.90;;
66402;SDS011;53212;52.112;5.144;2022-10-31T09:15:45;17.50;;;13.00;;
66402;SDS011;53212;52.112;5.144;2022-10-31T09:18:12;20.40;;;12.60;;
66402;SDS011;53212;52.112;5.144;2022-10-31T09:20:40;20.40;;;14.00;;
66402;SDS011;53212;52.112;5.144;2022-10-31T09:23:15;18.90;;;13.10;;
66402;SDS011;53212;52.112;5.144;2022-10-31T09:25:42;20.80;;;13.70;;
66402;SDS011;53212;52.112;5.144;2022-10-31T09:28:13;17.90;;;12.10;;
66402;SDS011;53212;52.112;5.144;2022-10-31T09:30:40;23.20;;;14.00;;
66402;SDS011;53212;52.112;5.144;2022-10-31T09:33:09;18.30;;;13.20;;
66402;SDS011;53212;52.112;5.144;2022-10-31T09:35:36;21.90;;;13.70;;
66402;SDS011;53212;52.112;5.144;2022-10-31T09:38:04;22.20;;;14.00;;
66402;SDS011;53212;52.112;5.144;2022-10-31T09:40:41;20.40;;;14.40;;
66402;SDS011;53212;52.112;5.144;2022-10-31T09:54:54;36.10;;;14.10;;
66402;SDS011;53212;52.112;5.144;2022-10-31T09:57:36;24.50;;;12.70;;
66402;SDS011;53212;52.112;5.144;2022-10-31T10:00:07;17.50;;;11.60;;
66402;SDS011;53212;52.112;5.144;2022-10-31T10:02:57;17.90;;;12.30;;
66402;SDS011;53212;52.112;5.144;2022-10-31T10:05:39;20.20;;;12.90;;
66402;SDS011;53212;52.112;5.144;2022-10-31T10:08:18;19.80;;;13.30;;
66402;SDS011;53212;52.112;5.144;2022-10-31T10:25:32;22.00;;;12.10;;
66402;SDS011;53212;52.112;5.144;2022-10-31T10:30:45;17.80;;;12.00;;
66402;SDS011;53212;52.112;5.144;2022-10-31T10:36:30;14.50;;;10.30;;
66402;SDS011;53212;52.112;5.144;2022-10-31T10:39:11;13.90;;;10.10;;
66402;SDS011;53212;52.112;5.144;2022-10-31T10:41:55;13.10;;;8.90;;
66402;SDS011;53212;52.112;5.144;2022-10-31T10:44:44;15.80;;;10.80;;
66402;SDS011;53212;52.112;5.144;2022-10-31T10:47:41;10.90;;;9.00;;
66402;SDS011;53212;52.112;5.144;2022-10-31T10:50:22;14.60;;;9.70;;
66402;SDS011;53212;52.112;5.144;2022-10-31T10:52:58;13.00;;;8.80;;
66402;SDS011;53212;52.112;5.144;2022-10-31T10:55:39;12.60;;;9.40;;
66402;SDS011;53212;52.112;5.144;2022-10-31T10:58:11;14.30;;;9.90;;
66402;SDS011;53212;52.112;5.144;2022-10-31T11:00:41;13.80;;;9.10;;
66402;SDS011;53212;52.112;5.144;2022-10-31T11:03:11;15.40;;;9.00;;
66402;SDS011;53212;52.112;5.144;2022-10-31T11:08:26;13.80;;;9.30;;
66402;SDS011;53212;52.112;5.144;2022-10-31T11:11:27;13.40;;;10.30;;
66402;SDS011;53212;52.112;5.144;2022-10-31T11:14:04;14.70;;;10.40;;
66402;SDS011;53212;52.112;5.144;2022-10-31T11:16:38;14.60;;;10.30;;
66402;SDS011;53212;52.112;5.144;2022-10-31T11:19:16;16.20;;;9.40;;
66402;SDS011;53212;52.112;5.144;2022-10-31T11:21:51;12.80;;;10.20;;
66402;SDS011;53212;52.112;5.144;2022-10-31T11:24:20;17.10;;;10.20;;
66402;SDS011;53212;52.112;5.144;2022-10-31T11:26:47;15.00;;;11.00;;
66402;SDS011;53212;52.112;5.144;2022-10-31T11:29:20;15.00;;;10.10;;
66402;SDS011;53212;52.112;5.144;2022-10-31T11:31:47;16.50;;;10.20;;
66402;SDS011;53212;52.112;5.144;2022-10-31T11:34:51;19.70;;;11.50;;
66402;SDS011;53212;52.112;5.144;2022-10-31T11:37:27;21.20;;;11.20;;
66402;SDS011;53212;52.112;5.144;2022-10-31T11:39:56;20.60;;;11.10;;
66402;SDS011;53212;52.112;5.144;2022-10-31T11:42:28;22.00;;;12.80;;
66402;SDS011;53212;52.112;5.144;2022-10-31T11:45:32;22.30;;;13.10;;
66402;SDS011;53212;52.112;5.144;2022-10-31T11:47:59;22.80;;;13.30;;
66402;SDS011;53212;52.112;5.144;2022-10-31T11:50:32;24.90;;;14.20;;
66402;SDS011;53212;52.112;5.144;2022-10-31T11:53:02;24.70;;;13.10;;
66402;SDS011;53212;52.112;5.144;2022-10-31T11:55:37;23.70;;;14.50;;
66402;SDS011;53212;52.112;5.144;2022-10-31T11:58:04;23.40;;;14.20;;
66402;SDS011;53212;52.112;5.144;2022-10-31T12:00:36;23.60;;;15.70;;
66402;SDS011;53212;52.112;5.144;2022-10-31T12:03:20;26.30;;;14.20;;
66402;SDS011;53212;52.112;5.144;2022-10-31T12:06:07;22.30;;;14.50;;
66402;SDS011;53212;52.112;5.144;2022-10-31T12:08:35;26.50;;;14.40;;
66402;SDS011;53212;52.112;5.144;2022-10-31T12:25:23;27.30;;;14.30;;
66402;SDS011;53212;52.112;5.144;2022-10-31T12:30:20;28.00;;;15.70;;
66402;SDS011;53212;52.112;5.144;2022-10-31T12:41:08;28.50;;;16.20;;
66402;SDS011;53212;52.112;5.144;2022-10-31T12:50:22;25.70;;;16.40;;
66402;SDS011;53212;52.112;5.144;2022-10-31T12:53:19;30.20;;;16.70;;
66402;SDS011;53212;52.112;5.144;2022-10-31T12:58:49;28.10;;;16.60;;
66402;SDS011;53212;52.112;5.144;2022-10-31T13:01:29;28.60;;;15.60;;
66402;SDS011;53212;52.112;5.144;2022-10-31T13:04:12;27.50;;;16.50;;
66402;SDS011;53212;52.112;5.144;2022-10-31T13:06:50;29.80;;;15.90;;
66402;SDS011;53212;52.112;5.144;2022-10-31T13:09:25;32.40;;;16.30;;
66402;SDS011;53212;52.112;5.144;2022-10-31T13:12:04;32.40;;;17.10;;
66402;SDS011;53212;52.112;5.144;2022-10-31T13:14:49;27.00;;;16.40;;
66402;SDS011;53212;52.112;5.144;2022-10-31T13:17:22;27.20;;;17.40;;
66402;SDS011;53212;52.112;5.144;2022-10-31T13:19:55;31.60;;;15.40;;
66402;SDS011;53212;52.112;5.144;2022-10-31T13:22:38;33.30;;;17.10;;
66402;SDS011;53212;52.112;5.144;2022-10-31T13:25:10;29.50;;;17.30;;
66402;SDS011;53212;52.112;5.144;2022-10-31T13:28:09;29.70;;;16.40;;
66402;SDS011;53212;52.112;5.144;2022-10-31T13:30:46;27.90;;;16.40;;
66402;SDS011;53212;52.112;5.144;2022-10-31T13:33:17;29.00;;;14.70;;
66402;SDS011;53212;52.112;5.144;2022-10-31T13:35:51;27.00;;;15.20;;
66402;SDS011;53212;52.112;5.144;2022-10-31T13:38:28;24.80;;;14.90;;
66402;SDS011;53212;52.112;5.144;2022-10-31T13:48:57;28.60;;;15.70;;
66402;SDS011;53212;52.112;5.144;2022-10-31T13:51:31;27.00;;;15.10;;
66402;SDS011;53212;52.112;5.144;2022-10-31T13:54:01;30.50;;;15.30;;
66402;SDS011;53212;52.112;5.144;2022-10-31T13:56:47;26.50;;;14.60;;
66402;SDS011;53212;52.112;5.144;2022-10-31T13:59:25;33.60;;;16.00;;
66402;SDS011;53212;52.112;5.144;2022-10-31T14:01:58;28.50;;;16.40;;
66402;SDS011;53212;52.112;5.144;2022-10-31T14:04:32;31.90;;;17.00;;
66402;SDS011;53212;52.112;5.144;2022-10-31T14:07:16;30.00;;;16.40;;
66402;SDS011;53212;52.112;5.144;2022-10-31T14:09:56;32.90;;;16.60;;
66402;SDS011;53212;52.112;5.144;2022-10-31T14:12:40;37.00;;;17.30;;
66402;SDS011;53212;52.112;5.144;2022-10-31T14:15:20;26.70;;;15.90;;
66402;SDS011;53212;52.112;5.144;2022-10-31T14:17:51;32.00;;;17.00;;
66402;SDS011;53212;52.112;5.144;2022-10-31T14:22:47;39.00;;;17.00;;
66402;SDS011;53212;52.112;5.144;2022-10-31T14:25:29;35.00;;;17.10;;
66402;SDS011;53212;52.112;5.144;2022-10-31T14:27:58;32.50;;;17.10;;
66402;SDS011;53212;52.112;5.144;2022-10-31T14:30:27;34.00;;;17.80;;
66402;SDS011;53212;52.112;5.144;2022-10-31T14:33:18;33.70;;;17.80;;
66402;SDS011;53212;52.112;5.144;2022-10-31T14:38:47;32.30;;;16.80;;
66402;SDS011;53212;52.112;5.144;2022-10-31T14:41:38;31.00;;;16.60;;
66402;SDS011;53212;52.112;5.144;2022-10-31T14:50:18;33.30;;;17.60;;
66402;SDS011;53212;52.112;5.144;2022-10-31T14:52:54;33.20;;;17.20;;
66402;SDS011;53212;52.112;5.144;2022-10-31T14:55:22;29.80;;;16.70;;
66402;SDS011;53212;52.112;5.144;2022-10-31T14:58:04;30.90;;;16.20;;
66402;SDS011;53212;52.112;5.144;2022-10-31T15:00:32;34.30;;;17.00;;
66402;SDS011;53212;52.112;5.144;2022-10-31T15:03:05;31.20;;;17.40;;
66402;SDS011;53212;52.112;5.144;2022-10-31T15:08:27;30.30;;;16.60;;
66402;SDS011;53212;52.112;5.144;2022-10-31T15:11:25;30.40;;;17.00;;
66402;SDS011;53212;52.112;5.144;2022-10-31T15:14:00;29.60;;;16.10;;
66402;SDS011;53212;52.112;5.144;2022-10-31T15:16:38;29.60;;;16.00;;
66402;SDS011;53212;52.112;5.144;2022-10-31T15:19:10;30.40;;;15.80;;
66402;SDS011;53212;52.112;5.144;2022-10-31T15:21:43;30.90;;;16.30;;
66402;SDS011;53212;52.112;5.144;2022-10-31T15:24:14;31.20;;;16.10;;
66402;SDS011;53212;52.112;5.144;2022-10-31T15:26:44;29.10;;;15.80;;
66402;SDS011;53212;52.112;5.144;2022-10-31T15:29:17;26.10;;;15.50;;
66402;SDS011;53212;52.112;5.144;2022-10-31T15:31:54;27.00;;;15.70;;
66402;SDS011;53212;52.112;5.144;2022-10-31T15:34:39;29.10;;;16.50;;
66402;SDS011;53212;52.112;5.144;2022-10-31T15:37:19;28.70;;;14.70;;
66402;SDS011;53212;52.112;5.144;2022-10-31T15:39:49;27.50;;;15.80;;
66402;SDS011;53212;52.112;5.144;2022-10-31T15:45:04;30.00;;;15.50;;
66402;SDS011;53212;52.112;5.144;2022-10-31T15:48:30;34.70;;;15.80;;
66402;SDS011;53212;52.112;5.144;2022-10-31T15:50:49;34.70;;;16.40;;
66402;SDS011;53212;52.112;5.144;2022-10-31T15:53:29;30.10;;;14.80;;
66402;SDS011;53212;52.112;5.144;2022-10-31T15:56:02;29.80;;;15.50;;
66402;SDS011;53212;52.112;5.144;2022-10-31T15:58:32;30.00;;;14.80;;
66402;SDS011;53212;52.112;5.144;2022-10-31T16:01:04;27.40;;;14.50;;
66402;SDS011;53212;52.112;5.144;2022-10-31T16:03:32;32.60;;;14.60;;
66402;SDS011;53212;52.112;5.144;2022-10-31T16:06:01;31.30;;;14.40;;
66402;SDS011;53212;52.112;5.144;2022-10-31T16:11:15;27.00;;;14.60;;
66402;SDS011;53212;52.112;5.144;2022-10-31T16:13:54;25.40;;;15.00;;
66402;SDS011;53212;52.112;5.144;2022-10-31T16:16:45;25.80;;;12.60;;
66402;SDS011;53212;52.112;5.144;2022-10-31T16:19:22;29.50;;;13.10;;
66402;SDS011;53212;52.112;5.144;2022-10-31T16:21:55;35.80;;;15.20;;
66402;SDS011;53212;52.112;5.144;2022-10-31T16:24:31;30.20;;;16.20;;
66402;SDS011;53212;52.112;5.144;2022-10-31T16:27:13;29.10;;;14.50;;
66402;SDS011;53212;52.112;5.144;2022-10-31T16:29:51;28.00;;;14.30;;
66402;SDS011;53212;52.112;5.144;2022-10-31T16:32:33;24.30;;;13.60;;
66402;SDS011;53212;52.112;5.144;2022-10-31T16:35:38;27.30;;;14.90;;
66402;SDS011;53212;52.112;5.144;2022-10-31T16:38:04;31.80;;;13.80;;
66402;SDS011;53212;52.112;5.144;2022-10-31T16:40:31;31.40;;;15.70;;
66402;SDS011;53212;52.112;5.144;2022-10-31T16:42:58;27.50;;;13.70;;
66402;SDS011;53212;52.112;5.144;2022-10-31T16:45:27;35.50;;;15.40;;
66402;SDS011;53212;52.112;5.144;2022-10-31T16:47:54;27.90;;;13.30;;
66402;SDS011;53212;52.112;5.144;2022-10-31T16:50:30;26.50;;;12.60;;
66402;SDS011;53212;52.112;5.144;2022-10-31T16:52:56;513.70;;;266.20;;
66402;SDS011;53212;52.112;5.144;2022-10-31T16:55:22;221.80;;;107.60;;
66402;SDS011;53212;52.112;5.144;2022-10-31T16:57:49;175.30;;;102.90;;
66402;SDS011;53212;52.112;5.144;2022-10-31T17:00:22;324.90;;;171.40;;
66402;SDS011;53212;52.112;5.144;2022-10-31T17:02:51;140.10;;;84.70;;
66402;SDS011;53212;52.112;5.144;2022-10-31T17:05:19;273.50;;;132.50;;
66402;SDS011;53212;52.112;5.144;2022-10-31T17:07:46;378.70;;;201.00;;
66402;SDS011;53212;52.112;5.144;2022-10-31T17:10:13;273.40;;;157.20;;
66402;SDS011;53212;52.112;5.144;2022-10-31T17:12:42;255.10;;;147.90;;
66402;SDS011;53212;52.112;5.144;2022-10-31T17:15:15;79.20;;;48.80;;
66402;SDS011;53212;52.112;5.144;2022-10-31T17:17:43;151.20;;;76.90;;
66402;SDS011;53212;52.112;5.144;2022-10-31T17:22:51;200.30;;;107.70;;